Time;durP1;ratioP1;P1;durP2;ratioP2;P2;SDS_P1;SDS_P2;PMS_P1;PMS_P2;Temp;Humidity;BMP_temperature;BMP_pressure;BME280_temperature;BME280_humidity;BME280_pressure;Samples;Min_cycle;Max_cycle;Signal;HPM_P1;HPM_P2
2021/09/18 00:01:26;;;;;;;41.42;28.17;;;16.10;99.90;;;;;;4993508;28;25062;-76
2021/09/18 00:03:52;;;;;;;37.67;27.77;;;16.20;99.90;;;;;;4994147;28;25062;-76
2021/09/18 00:06:18;;;;;;;36.60;25.35;;;16.20;99.90;;;;;;4996161;28;25112;-75
2021/09/18 00:08:43;;;;;;;31.92;25.00;;;16.30;99.90;;;;;;5003658;28;25053;-75
2021/09/18 00:11:09;;;;;;;42.38;29.05;;;16.40;99.90;;;;;;5007100;28;25070;-76
2021/09/18 00:13:35;;;;;;;41.60;29.33;;;16.40;99.90;;;;;;4991053;28;25053;-77
2021/09/18 00:16:01;;;;;;;44.03;30.40;;;16.30;99.90;;;;;;4996187;28;25052;-76
2021/09/18 00:18:26;;;;;;;42.92;32.15;;;16.30;99.90;;;;;;4992335;28;25098;-76
2021/09/18 00:20:52;;;;;;;39.78;29.27;;;16.20;99.90;;;;;;4993088;28;25059;-76
2021/09/18 00:23:18;;;;;;;37.08;28.77;;;16.30;99.90;;;;;;4995021;28;25054;-76
2021/09/18 00:25:44;;;;;;;40.60;29.00;;;16.40;99.90;;;;;;4995102;28;25049;-75
2021/09/18 00:28:10;;;;;;;38.47;29.95;;;16.50;99.90;;;;;;4992074;28;25104;-76
2021/09/18 00:30:36;;;;;;;39.10;29.02;;;16.60;99.90;;;;;;4993275;28;25105;-76
2021/09/18 00:33:02;;;;;;;39.28;30.10;;;16.70;99.90;;;;;;4992209;28;25058;-75
2021/09/18 00:35:28;;;;;;;44.47;29.83;;;16.60;99.90;;;;;;4998205;28;25084;-77
2021/09/18 00:37:54;;;;;;;40.70;29.52;;;16.60;99.90;;;;;;4980881;28;25097;-76
2021/09/18 00:40:20;;;;;;;38.78;29.83;;;16.70;99.90;;;;;;4995455;28;25099;-76
2021/09/18 00:42:45;;;;;;;40.33;30.42;;;16.70;99.90;;;;;;4994424;28;25075;-75
2021/09/18 00:45:11;;;;;;;44.17;29.25;;;16.60;99.90;;;;;;4998477;28;25079;-76
2021/09/18 00:47:37;;;;;;;45.72;30.90;;;16.60;99.90;;;;;;4997019;28;25081;-77
2021/09/18 00:50:04;;;;;;;41.58;29.60;;;16.60;99.90;;;;;;4995888;28;25055;-76
2021/09/18 00:52:30;;;;;;;41.47;29.30;;;16.50;99.90;;;;;;4998092;28;25076;-76
2021/09/18 00:54:56;;;;;;;40.28;29.80;;;16.50;99.90;;;;;;4996328;28;25065;-76
2021/09/18 00:57:23;;;;;;;48.35;29.15;;;16.50;99.90;;;;;;4998657;28;25102;-76
2021/09/18 00:59:48;;;;;;;41.95;31.63;;;16.60;99.90;;;;;;5000580;28;25064;-77
2021/09/18 01:02:14;;;;;;;40.60;27.58;;;16.60;99.90;;;;;;5011534;28;25061;-76
2021/09/18 01:04:41;;;;;;;40.78;30.58;;;16.80;99.90;;;;;;4994537;28;25116;-76
2021/09/18 01:07:07;;;;;;;40.65;30.45;;;16.90;99.90;;;;;;4989802;28;25056;-76
2021/09/18 01:09:35;;;;;;;43.03;29.45;;;17.00;99.90;;;;;;4993370;28;25064;-76
2021/09/18 01:12:05;;;;;;;42.28;30.45;;;16.90;99.90;;;;;;4995204;28;25061;-75
2021/09/18 01:14:31;;;;;;;41.65;29.98;;;16.80;99.90;;;;;;4995272;28;25051;-76
2021/09/18 01:16:57;;;;;;;40.80;29.33;;;16.70;99.90;;;;;;4999494;28;25095;-76
2021/09/18 01:19:23;;;;;;;40.80;30.95;;;16.70;99.90;;;;;;4992918;28;25092;-76
2021/09/18 01:21:49;;;;;;;40.75;31.40;;;16.60;99.90;;;;;;4993866;28;25061;-77
2021/09/18 01:24:16;;;;;;;47.03;32.40;;;16.60;99.90;;;;;;4993188;28;25065;-76
2021/09/18 01:26:42;;;;;;;42.45;30.63;;;16.50;99.90;;;;;;4993096;28;25083;-77
2021/09/18 01:29:09;;;;;;;45.60;32.15;;;16.40;99.90;;;;;;4993608;28;25112;-76
2021/09/18 01:31:45;;;;;;;49.47;29.75;;;16.30;99.90;;;;;;4996067;28;25101;-75
2021/09/18 01:34:17;;;;;;;45.90;32.05;;;16.30;99.90;;;;;;5009624;28;25095;-78
2021/09/18 01:36:45;;;;;;;45.85;32.58;;;16.30;99.90;;;;;;5016099;28;25072;-76
2021/09/18 01:39:11;;;;;;;43.38;32.30;;;16.20;99.90;;;;;;5015383;28;25044;-76
2021/09/18 01:42:02;;;;;;;43.80;31.65;;;16.20;99.90;;;;;;5017960;28;25081;-77
2021/09/18 01:44:28;;;;;;;41.08;29.73;;;16.40;99.90;;;;;;5004615;28;25060;-74
2021/09/18 01:46:53;;;;;;;43.33;32.03;;;16.50;99.90;;;;;;4996700;28;25063;-75
2021/09/18 01:49:19;;;;;;;41.80;29.20;;;16.50;99.90;;;;;;5007637;28;25129;-76
2021/09/18 01:54:45;;;;;;;49.78;31.70;;;16.30;99.90;;;;;;4958823;28;25083;-76
2021/09/18 01:57:11;;;;;;;42.80;31.00;;;16.20;99.90;;;;;;4990910;28;25078;-76
2021/09/18 01:59:37;;;;;;;47.80;31.63;;;16.20;99.90;;;;;;4999915;28;25055;-75
2021/09/18 02:02:03;;;;;;;46.28;30.30;;;16.20;99.90;;;;;;5000383;28;25114;-76
2021/09/18 02:04:28;;;;;;;46.80;31.55;;;16.10;99.90;;;;;;4993307;28;25082;-76
2021/09/18 02:06:54;;;;;;;51.88;33.42;;;16.10;99.90;;;;;;4989954;28;25123;-75
2021/09/18 02:09:19;;;;;;;47.42;33.50;;;16.20;99.90;;;;;;4990839;28;25064;-75
2021/09/18 02:11:45;;;;;;;48.78;32.65;;;16.10;99.90;;;;;;4994515;28;25092;-76
2021/09/18 02:14:11;;;;;;;46.03;31.75;;;16.10;99.90;;;;;;4995109;28;25082;-74
2021/09/18 02:16:36;;;;;;;45.95;32.17;;;16.30;99.90;;;;;;4998583;28;25095;-75
2021/09/18 02:19:02;;;;;;;51.53;34.65;;;16.30;99.90;;;;;;4991322;28;25077;-76
2021/09/18 02:21:28;;;;;;;48.85;34.63;;;16.10;99.90;;;;;;4992357;28;25106;-76
2021/09/18 02:23:53;;;;;;;47.72;32.75;;;16.00;99.90;;;;;;5001340;28;25131;-75
2021/09/18 02:26:19;;;;;;;59.08;35.47;;;16.00;99.90;;;;;;4992749;28;25086;-75
2021/09/18 02:28:44;;;;;;;50.00;33.85;;;16.10;99.90;;;;;;4993562;28;25078;-77
2021/09/18 02:31:10;;;;;;;54.50;35.80;;;16.20;99.90;;;;;;4991359;28;25111;-78
2021/09/18 02:33:36;;;;;;;51.83;36.35;;;16.20;99.90;;;;;;4995413;28;25063;-76
2021/09/18 02:36:03;;;;;;;56.05;37.55;;;16.00;99.90;;;;;;4990050;28;25071;-75
2021/09/18 02:38:28;;;;;;;52.72;36.63;;;16.00;99.90;;;;;;5014486;28;25081;-77
2021/09/18 02:40:55;;;;;;;46.72;34.17;;;15.90;99.90;;;;;;5004044;28;25076;-77
2021/09/18 02:43:20;;;;;;;54.97;36.83;;;15.90;99.90;;;;;;4995192;28;25058;-77
2021/09/18 02:45:59;;;;;;;56.40;38.10;;;15.90;99.90;;;;;;4996336;28;25054;-79
2021/09/18 02:48:25;;;;;;;60.55;39.25;;;15.90;99.90;;;;;;4993570;28;25061;-77
2021/09/18 02:50:51;;;;;;;72.32;45.65;;;15.80;99.90;;;;;;4992185;28;25083;-76
2021/09/18 02:53:17;;;;;;;57.25;39.63;;;15.80;99.90;;;;;;4993153;28;25371;-77
2021/09/18 02:55:43;;;;;;;74.45;42.97;;;15.80;99.90;;;;;;4994099;28;25095;-77
2021/09/18 02:58:08;;;;;;;61.35;39.08;;;15.70;99.90;;;;;;4994794;28;25110;-76
2021/09/18 03:00:34;;;;;;;62.83;42.95;;;15.60;99.90;;;;;;4996403;28;25086;-77
2021/09/18 03:03:01;;;;;;;61.47;41.35;;;15.60;99.90;;;;;;5000489;28;25061;-76
2021/09/18 03:05:26;;;;;;;62.90;42.03;;;15.50;99.90;;;;;;5000235;28;25080;-76
2021/09/18 03:07:52;;;;;;;72.80;45.55;;;15.50;99.90;;;;;;5015593;28;25075;-76
2021/09/18 03:10:17;;;;;;;64.40;41.78;;;15.50;99.90;;;;;;5001618;28;25079;-77
2021/09/18 03:12:43;;;;;;;67.05;44.47;;;15.50;99.90;;;;;;5005024;28;25050;-76
2021/09/18 03:15:11;;;;;;;75.05;47.67;;;15.50;99.90;;;;;;4997422;28;25100;-76
2021/09/18 03:17:37;;;;;;;71.63;46.75;;;15.50;99.90;;;;;;4996058;28;25076;-75
2021/09/18 03:20:04;;;;;;;81.28;48.65;;;15.50;99.90;;;;;;4995688;28;25059;-77
2021/09/18 03:22:30;;;;;;;79.22;48.72;;;15.50;99.90;;;;;;4995595;28;25076;-76
2021/09/18 03:24:56;;;;;;;71.28;46.72;;;15.60;99.90;;;;;;4993637;28;25081;-76
2021/09/18 03:27:21;;;;;;;81.97;50.38;;;15.60;99.90;;;;;;4992337;28;25097;-76
2021/09/18 03:29:47;;;;;;;77.47;49.20;;;15.60;99.90;;;;;;4992624;28;25094;-77
2021/09/18 03:32:13;;;;;;;78.60;51.90;;;15.60;99.90;;;;;;4993321;28;25066;-75
2021/09/18 03:34:39;;;;;;;87.38;53.92;;;15.60;99.90;;;;;;4993819;28;25082;-76
2021/09/18 03:37:04;;;;;;;84.68;55.13;;;15.70;99.90;;;;;;4994174;28;25062;-78
2021/09/18 03:39:30;;;;;;;79.80;53.53;;;15.80;99.90;;;;;;4992976;28;25063;-76
2021/09/18 03:41:56;;;;;;;81.80;55.08;;;15.90;99.90;;;;;;4994095;28;25093;-74
2021/09/18 03:44:22;;;;;;;94.10;60.83;;;15.80;99.90;;;;;;5001174;28;25078;-73
2021/09/18 03:46:49;;;;;;;94.68;59.35;;;15.80;99.90;;;;;;4990112;28;25224;-76
2021/09/18 03:49:14;;;;;;;98.38;60.83;;;15.70;99.90;;;;;;4990631;28;25063;-75
2021/09/18 03:51:40;;;;;;;96.43;59.08;;;15.80;99.90;;;;;;5004658;28;25056;-75
2021/09/18 03:54:05;;;;;;;102.32;62.00;;;15.80;99.90;;;;;;4972829;28;25087;-77
2021/09/18 03:56:31;;;;;;;97.03;60.88;;;15.80;99.90;;;;;;4990214;28;25076;-75
2021/09/18 03:58:57;;;;;;;97.10;59.15;;;15.70;99.90;;;;;;4986629;28;25077;-75
2021/09/18 04:01:23;;;;;;;89.80;58.15;;;15.80;99.90;;;;;;4979563;28;25063;-75
2021/09/18 04:03:48;;;;;;;100.80;59.17;;;15.80;99.90;;;;;;4988556;28;25058;-76
2021/09/18 04:06:14;;;;;;;97.63;60.55;;;15.70;99.90;;;;;;4989917;28;25087;-75
2021/09/18 04:08:40;;;;;;;100.07;61.03;;;15.60;99.90;;;;;;4986909;28;25083;-75
2021/09/18 04:11:05;;;;;;;106.80;64.63;;;15.50;99.90;;;;;;4984561;28;25171;-75
2021/09/18 04:13:32;;;;;;;116.75;65.72;;;15.40;99.90;;;;;;4981326;28;25069;-76
2021/09/18 04:15:58;;;;;;;107.28;64.78;;;15.30;99.90;;;;;;4981808;28;25124;-76
2021/09/18 04:18:23;;;;;;;115.10;66.32;;;15.20;99.90;;;;;;4974766;28;25075;-75
2021/09/18 04:20:49;;;;;;;115.68;65.25;;;15.30;99.90;;;;;;4987458;28;25059;-75
2021/09/18 04:23:14;;;;;;;118.03;66.32;;;15.40;99.90;;;;;;4988040;28;25081;-76
2021/09/18 04:25:40;;;;;;;119.57;68.90;;;15.30;99.90;;;;;;4981488;28;25091;-76
2021/09/18 04:28:05;;;;;;;129.35;69.15;;;15.20;99.90;;;;;;4992923;28;25091;-76
2021/09/18 04:30:31;;;;;;;104.90;63.42;;;15.20;99.90;;;;;;4995372;28;25112;-76
2021/09/18 04:32:57;;;;;;;108.88;64.93;;;15.20;99.90;;;;;;4979771;28;25078;-75
2021/09/18 04:35:22;;;;;;;111.65;65.63;;;15.20;99.90;;;;;;4988793;28;25078;-74
2021/09/18 04:37:48;;;;;;;112.03;67.28;;;15.10;99.90;;;;;;4990000;28;25087;-75
2021/09/18 04:40:13;;;;;;;107.90;62.80;;;15.10;99.90;;;;;;4996194;28;25072;-76
2021/09/18 04:42:39;;;;;;;110.00;66.25;;;15.10;99.90;;;;;;4987770;28;25113;-75
2021/09/18 04:45:06;;;;;;;112.15;66.38;;;15.40;99.90;;;;;;5001455;28;25071;-75
2021/09/18 04:47:31;;;;;;;105.95;65.60;;;15.40;99.90;;;;;;5007288;28;25070;-76
2021/09/18 04:49:57;;;;;;;112.60;66.10;;;15.40;99.90;;;;;;4993560;28;25170;-76
2021/09/18 04:52:22;;;;;;;116.57;67.45;;;15.40;99.90;;;;;;5003186;28;25086;-76
2021/09/18 04:54:48;;;;;;;112.45;65.47;;;15.30;99.90;;;;;;4999028;28;25076;-76
2021/09/18 04:57:13;;;;;;;119.68;68.20;;;15.10;99.90;;;;;;4990808;28;25134;-76
2021/09/18 04:59:40;;;;;;;126.43;69.70;;;15.10;99.90;;;;;;4989880;28;25114;-78
2021/09/18 05:02:08;;;;;;;111.80;68.53;;;15.10;99.90;;;;;;4990177;28;25053;-77
2021/09/18 05:04:33;;;;;;;126.82;71.57;;;15.10;99.90;;;;;;4989971;28;25059;-75
2021/09/18 05:06:59;;;;;;;117.10;66.60;;;15.10;99.90;;;;;;4988256;28;25065;-75
2021/09/18 05:09:25;;;;;;;105.88;64.80;;;15.10;99.90;;;;;;4989482;28;25124;-75
2021/09/18 05:11:52;;;;;;;115.45;66.80;;;15.10;99.90;;;;;;4990016;28;25056;-76
2021/09/18 05:14:18;;;;;;;111.50;64.93;;;15.10;99.90;;;;;;4989344;28;25100;-75
2021/09/18 05:16:43;;;;;;;120.88;70.45;;;15.00;99.90;;;;;;4989168;28;25090;-76
2021/09/18 05:19:10;;;;;;;120.43;69.45;;;15.00;99.90;;;;;;4988670;28;25066;-75
2021/09/18 05:21:35;;;;;;;110.50;66.63;;;14.90;99.90;;;;;;4988036;28;25083;-75
2021/09/18 05:24:01;;;;;;;113.72;66.28;;;14.90;99.90;;;;;;4988665;28;25099;-75
2021/09/18 05:26:27;;;;;;;119.68;69.97;;;14.90;99.90;;;;;;4988784;28;25091;-75
2021/09/18 05:28:53;;;;;;;127.72;67.70;;;15.00;99.90;;;;;;4989390;28;25081;-75
2021/09/18 05:31:19;;;;;;;116.50;67.75;;;15.00;99.90;;;;;;4998020;28;25072;-76
2021/09/18 05:33:44;;;;;;;116.32;66.65;;;15.00;99.90;;;;;;4998558;28;25072;-75
2021/09/18 05:36:11;;;;;;;108.28;64.65;;;15.00;99.90;;;;;;4993574;28;25078;-76
2021/09/18 05:38:39;;;;;;;109.85;66.50;;;15.00;99.90;;;;;;5000752;28;25063;-75
2021/09/18 05:41:04;;;;;;;119.05;66.13;;;15.10;99.90;;;;;;4995943;28;25089;-77
2021/09/18 05:43:30;;;;;;;107.25;65.97;;;15.10;99.90;;;;;;4991055;28;25109;-76
2021/09/18 05:45:55;;;;;;;116.38;63.75;;;15.20;99.90;;;;;;4992917;28;25092;-76
2021/09/18 05:48:21;;;;;;;109.30;64.03;;;15.30;99.90;;;;;;4990691;28;25051;-77
2021/09/18 05:50:47;;;;;;;107.78;63.05;;;15.40;99.90;;;;;;4992507;28;25083;-77
2021/09/18 05:53:14;;;;;;;97.38;60.67;;;15.50;99.90;;;;;;4992010;28;25080;-74
2021/09/18 05:55:39;;;;;;;111.15;66.90;;;15.70;99.90;;;;;;5007837;28;25097;-76
2021/09/18 05:58:05;;;;;;;101.63;59.00;;;15.70;99.90;;;;;;4989799;28;25090;-75
2021/09/18 06:00:30;;;;;;;105.68;63.25;;;15.70;99.90;;;;;;4988913;28;25079;-76
2021/09/18 06:02:56;;;;;;;107.32;62.60;;;15.80;99.90;;;;;;4993955;28;25084;-76
2021/09/18 06:05:22;;;;;;;104.75;62.85;;;15.80;99.90;;;;;;4988736;28;25071;-75
2021/09/18 06:07:47;;;;;;;105.97;64.88;;;15.80;99.90;;;;;;4984379;28;25067;-75
2021/09/18 06:10:13;;;;;;;103.20;61.75;;;15.90;99.90;;;;;;4983795;28;25099;-76
2021/09/18 06:12:38;;;;;;;104.93;63.67;;;16.00;99.90;;;;;;4982809;28;25059;-75
2021/09/18 06:15:05;;;;;;;99.75;61.40;;;16.10;99.90;;;;;;4985661;28;25077;-74
2021/09/18 06:17:30;;;;;;;96.55;60.78;;;16.10;99.90;;;;;;4991361;28;25079;-74
2021/09/18 06:19:56;;;;;;;97.20;61.05;;;16.20;99.90;;;;;;4986920;28;25080;-74
2021/09/18 06:22:21;;;;;;;96.20;59.38;;;16.30;99.90;;;;;;4991459;28;25075;-75
2021/09/18 06:24:47;;;;;;;98.78;60.97;;;16.40;99.90;;;;;;4991410;28;25059;-75
2021/09/18 06:27:13;;;;;;;92.53;59.03;;;16.60;99.90;;;;;;4993099;28;25086;-74
2021/09/18 06:29:38;;;;;;;88.65;56.35;;;16.60;99.90;;;;;;5001753;28;25076;-76
2021/09/18 06:32:08;;;;;;;93.53;60.10;;;16.70;99.90;;;;;;4999800;28;25058;-76
2021/09/18 06:34:35;;;;;;;95.38;57.80;;;16.70;99.90;;;;;;4999726;28;25057;-76
2021/09/18 06:37:01;;;;;;;89.97;58.45;;;16.50;99.90;;;;;;4985926;28;25066;-75
2021/09/18 06:39:27;;;;;;;88.03;55.55;;;16.50;99.90;;;;;;4987979;28;25077;-75
2021/09/18 06:41:52;;;;;;;93.47;60.25;;;16.60;99.90;;;;;;4989127;28;25115;-75
2021/09/18 06:44:18;;;;;;;87.32;56.22;;;16.50;99.90;;;;;;4991962;28;25078;-74
2021/09/18 06:46:43;;;;;;;81.32;54.33;;;16.70;99.90;;;;;;4986976;28;25072;-74
2021/09/18 06:49:10;;;;;;;91.10;56.55;;;16.80;99.90;;;;;;4988787;28;25056;-74
2021/09/18 06:51:36;;;;;;;82.55;53.78;;;16.90;99.90;;;;;;4987100;28;25082;-75
2021/09/18 06:54:02;;;;;;;75.07;51.13;;;16.80;99.90;;;;;;4991929;28;25075;-75
2021/09/18 06:56:28;;;;;;;80.15;53.47;;;16.80;99.90;;;;;;4992361;28;25065;-76
2021/09/18 06:58:55;;;;;;;73.70;48.35;;;16.90;99.90;;;;;;4990933;28;25170;-76
2021/09/18 07:01:22;;;;;;;78.72;52.13;;;16.90;99.90;;;;;;4987618;28;25127;-74
2021/09/18 07:03:48;;;;;;;70.80;50.17;;;17.00;99.90;;;;;;4984235;28;25055;-73
2021/09/18 07:06:13;;;;;;;72.13;49.92;;;17.00;99.90;;;;;;4981318;28;25069;-75
2021/09/18 07:08:39;;;;;;;70.55;46.63;;;17.10;99.90;;;;;;4989091;28;25072;-74
2021/09/18 07:11:04;;;;;;;72.35;48.17;;;17.10;99.90;;;;;;4986308;28;25078;-74
2021/09/18 07:13:30;;;;;;;68.40;46.22;;;17.10;99.90;;;;;;4983438;28;25087;-74
2021/09/18 07:15:56;;;;;;;66.20;46.40;;;17.30;99.90;;;;;;4998615;28;25151;-74
2021/09/18 07:18:22;;;;;;;61.47;44.17;;;17.40;99.90;;;;;;4983544;28;25056;-74
2021/09/18 07:20:47;;;;;;;55.92;41.05;;;17.40;99.90;;;;;;4983139;28;25052;-75
2021/09/18 07:23:13;;;;;;;61.70;41.17;;;17.50;99.90;;;;;;4987295;28;25140;-75
2021/09/18 07:25:39;;;;;;;58.40;42.88;;;17.60;99.90;;;;;;4977632;28;25085;-73
2021/09/18 07:28:04;;;;;;;53.35;39.90;;;17.60;99.90;;;;;;4983192;28;25075;-73
2021/09/18 07:30:30;;;;;;;53.55;41.30;;;17.60;99.90;;;;;;4993053;28;25076;-73
2021/09/18 07:32:56;;;;;;;58.58;40.60;;;17.70;99.90;;;;;;5009201;28;25086;-73
2021/09/18 07:35:29;;;;;;;51.75;39.47;;;17.70;99.90;;;;;;5003044;28;25067;-75
2021/09/18 07:37:58;;;;;;;53.42;40.47;;;17.70;99.90;;;;;;5006921;28;25056;-73
2021/09/18 07:40:24;;;;;;;54.38;40.40;;;17.70;99.90;;;;;;4989703;28;25055;-75
2021/09/18 07:42:49;;;;;;;54.28;40.33;;;17.80;99.90;;;;;;4987743;28;25046;-74
2021/09/18 07:45:15;;;;;;;54.90;40.38;;;17.90;99.90;;;;;;4989371;28;25149;-75
2021/09/18 07:47:40;;;;;;;49.75;37.28;;;17.90;99.90;;;;;;4989962;28;25112;-74
2021/09/18 07:50:07;;;;;;;51.55;37.10;;;17.90;99.90;;;;;;5003333;28;25056;-75
2021/09/18 07:52:32;;;;;;;48.50;36.10;;;17.90;99.90;;;;;;4989757;28;25073;-75
2021/09/18 07:54:58;;;;;;;43.80;35.55;;;17.90;99.90;;;;;;5014435;28;25064;-74
2021/09/18 07:57:23;;;;;;;49.30;36.17;;;17.90;99.90;;;;;;4989412;28;25067;-75
2021/09/18 07:59:50;;;;;;;53.20;38.35;;;17.90;99.90;;;;;;5005433;28;25058;-76
2021/09/18 08:02:15;;;;;;;48.15;34.63;;;17.80;99.90;;;;;;4990688;28;25121;-74
2021/09/18 08:04:41;;;;;;;43.28;35.10;;;17.80;99.90;;;;;;4995002;28;25074;-75
2021/09/18 08:07:07;;;;;;;46.42;34.97;;;17.90;99.90;;;;;;4990419;28;25080;-74
2021/09/18 08:09:32;;;;;;;46.72;35.42;;;18.00;99.90;;;;;;4986551;28;25103;-76
2021/09/18 08:11:58;;;;;;;53.13;38.45;;;18.10;99.90;;;;;;4986976;28;25059;-74
2021/09/18 08:14:24;;;;;;;51.00;37.47;;;18.20;99.90;;;;;;4988108;28;25091;-74
2021/09/18 08:16:50;;;;;;;49.55;38.65;;;18.30;99.90;;;;;;4984240;28;25061;-74
2021/09/18 08:19:17;;;;;;;49.80;36.85;;;18.40;99.90;;;;;;4988214;28;25072;-75
2021/09/18 08:21:43;;;;;;;49.88;38.00;;;18.40;99.90;;;;;;4990580;28;25072;-74
2021/09/18 08:24:09;;;;;;;53.03;36.72;;;18.50;99.90;;;;;;4985760;28;25060;-74
2021/09/18 08:26:35;;;;;;;55.58;37.40;;;18.60;99.90;;;;;;4990785;28;25058;-72
2021/09/18 08:29:03;;;;;;;52.42;38.22;;;18.50;99.90;;;;;;4995764;28;25052;-75
2021/09/18 08:31:29;;;;;;;50.65;38.10;;;18.60;99.90;;;;;;4983639;28;25073;-76
2021/09/18 08:33:54;;;;;;;54.42;37.45;;;19.10;99.90;;;;;;4981527;28;25168;-73
2021/09/18 08:36:20;;;;;;;47.90;35.13;;;19.20;99.90;;;;;;4984223;28;25065;-76
2021/09/18 08:38:47;;;;;;;44.03;33.45;;;19.40;99.90;;;;;;4978097;28;25069;-76
2021/09/18 08:41:13;;;;;;;43.33;32.35;;;19.80;99.90;;;;;;4980735;28;25067;-77
2021/09/18 08:43:39;;;;;;;43.10;33.60;;;20.00;99.90;;;;;;4981895;28;25146;-76
2021/09/18 08:46:06;;;;;;;45.50;34.22;;;20.20;99.90;;;;;;4980252;28;25078;-76
2021/09/18 08:48:33;;;;;;;43.25;34.90;;;20.30;99.90;;;;;;4978920;28;25108;-75
2021/09/18 08:50:59;;;;;;;36.92;31.08;;;20.40;99.90;;;;;;4976563;28;25065;-75
2021/09/18 08:53:25;;;;;;;44.75;32.50;;;20.40;99.90;;;;;;4993225;28;25082;-74
2021/09/18 08:55:55;;;;;;;39.60;30.30;;;20.40;99.90;;;;;;4979376;28;25095;-77
2021/09/18 08:58:21;;;;;;;44.08;33.38;;;20.20;99.90;;;;;;4976285;28;25061;-75
2021/09/18 09:00:49;;;;;;;42.70;33.50;;;20.10;99.90;;;;;;4987867;28;25113;-75
2021/09/18 09:03:35;;;;;;;40.70;32.25;;;19.80;99.90;;;;;;4989521;28;25111;-74
2021/09/18 09:06:12;;;;;;;38.90;29.90;;;19.80;99.90;;;;;;4987672;28;25068;-75
2021/09/18 09:08:40;;;;;;;44.92;31.80;;;20.10;99.90;;;;;;4992575;28;25157;-72
2021/09/18 09:11:17;;;;;;;40.10;32.17;;;20.60;99.90;;;;;;4997302;28;25060;-75
2021/09/18 09:14:03;;;;;;;35.40;30.83;;;21.00;99.90;;;;;;4994763;28;25096;-76
2021/09/18 09:16:33;;;;;;;39.58;31.13;;;21.30;99.90;;;;;;4997633;28;25053;-74
2021/09/18 09:19:11;;;;;;;44.40;32.53;;;21.10;99.90;;;;;;5011991;28;25058;-74
2021/09/18 09:21:44;;;;;;;41.95;33.40;;;20.70;99.90;;;;;;4981482;28;25079;-76
2021/09/18 09:24:15;;;;;;;41.22;31.80;;;20.90;99.90;;;;;;4991824;28;25098;-73
2021/09/18 09:27:04;;;;;;;42.75;33.58;;;20.70;99.90;;;;;;4993096;28;25055;-72
2021/09/18 09:29:48;;;;;;;39.53;30.35;;;20.70;99.90;;;;;;4988414;28;25059;-74
2021/09/18 09:32:30;;;;;;;40.97;31.02;;;20.60;99.90;;;;;;4992672;28;25071;-74
2021/09/18 09:34:56;;;;;;;39.60;31.97;;;20.70;99.90;;;;;;4996801;28;25052;-75
2021/09/18 09:37:23;;;;;;;36.08;29.33;;;20.50;99.90;;;;;;4984582;28;25077;-74
2021/09/18 09:39:55;;;;;;;39.28;30.02;;;20.70;99.90;;;;;;4981203;28;25071;-74
2021/09/18 09:42:26;;;;;;;33.67;26.33;;;20.80;99.90;;;;;;4989997;28;25061;-74
2021/09/18 09:44:53;;;;;;;32.17;25.55;;;20.70;99.90;;;;;;4997868;28;25116;-77
2021/09/18 09:47:22;;;;;;;29.00;23.83;;;20.70;99.90;;;;;;4988652;28;25059;-75
2021/09/18 09:49:50;;;;;;;34.28;25.75;;;20.60;99.90;;;;;;4993006;28;25097;-75
2021/09/18 09:52:22;;;;;;;35.45;25.75;;;20.70;99.90;;;;;;5011612;28;25120;-75
2021/09/18 09:54:49;;;;;;;32.15;24.05;;;20.60;99.90;;;;;;5012374;28;25053;-76
2021/09/18 09:57:15;;;;;;;29.88;22.83;;;20.70;99.90;;;;;;4988391;28;25196;-76
2021/09/18 09:59:42;;;;;;;34.53;23.80;;;20.60;99.90;;;;;;4984860;28;25124;-74
2021/09/18 10:02:11;;;;;;;32.00;22.77;;;20.70;99.90;;;;;;5002349;28;25178;-76
2021/09/18 10:04:37;;;;;;;35.15;26.45;;;20.80;99.90;;;;;;4992172;28;25063;-76
2021/09/18 10:07:04;;;;;;;28.52;23.33;;;20.70;99.90;;;;;;4993875;28;25099;-76
2021/09/18 10:09:30;;;;;;;31.20;22.38;;;20.40;99.90;;;;;;4986098;28;25080;-76
2021/09/18 10:11:57;;;;;;;28.98;22.55;;;20.40;99.90;;;;;;4978084;28;25064;-75
2021/09/18 10:14:25;;;;;;;28.73;22.77;;;20.70;99.90;;;;;;4991203;28;25069;-75
2021/09/18 10:16:53;;;;;;;36.40;26.75;;;20.90;99.90;;;;;;5001834;28;25072;-76
2021/09/18 10:19:31;;;;;;;40.95;30.75;;;21.00;99.90;;;;;;4993261;28;25090;-75
2021/09/18 10:24:42;;;;;;;34.58;26.85;;;20.70;99.90;;;;;;5001987;28;25118;-76
2021/09/18 10:27:13;;;;;;;32.72;25.20;;;20.80;99.90;;;;;;4991355;28;25090;-75
2021/09/18 10:29:39;;;;;;;34.85;24.33;;;20.70;99.90;;;;;;5000733;28;25081;-74
2021/09/18 10:32:04;;;;;;;30.63;24.30;;;20.50;99.90;;;;;;4990483;28;25083;-75
2021/09/18 10:34:30;;;;;;;32.65;26.80;;;20.60;99.90;;;;;;5000279;28;25142;-74
2021/09/18 10:36:56;;;;;;;33.60;26.55;;;20.80;99.90;;;;;;4990696;28;25105;-75
2021/09/18 10:39:21;;;;;;;34.33;24.98;;;20.90;99.90;;;;;;4992653;28;25146;-76
2021/09/18 10:41:50;;;;;;;33.25;24.15;;;21.20;99.90;;;;;;4990219;28;25109;-76
2021/09/18 10:44:18;;;;;;;27.30;22.00;;;21.30;99.90;;;;;;5003705;28;25132;-75
2021/09/18 10:46:48;;;;;;;34.88;25.10;;;21.00;99.90;;;;;;4990387;28;25077;-71
2021/09/18 10:49:33;;;;;;;32.88;26.02;;;21.10;99.90;;;;;;4988675;28;25064;-75
2021/09/18 10:52:17;;;;;;;35.28;27.98;;;20.90;99.90;;;;;;4988251;28;25069;-74
2021/09/18 10:55:10;;;;;;;33.50;26.35;;;20.70;99.90;;;;;;4988254;28;25066;-75
2021/09/18 10:57:37;;;;;;;27.15;21.58;;;21.00;99.90;;;;;;4987461;28;25064;-73
2021/09/18 11:00:18;;;;;;;30.95;23.95;;;21.30;99.90;;;;;;4992968;28;25087;-75
2021/09/18 11:02:48;;;;;;;29.23;20.42;;;21.40;99.90;;;;;;5007977;28;25163;-76
2021/09/18 11:05:25;;;;;;;27.33;21.63;;;21.60;99.90;;;;;;4989886;28;25087;-76
2021/09/18 11:07:58;;;;;;;25.65;19.25;;;21.80;99.90;;;;;;4982218;28;25076;-74
2021/09/18 11:10:24;;;;;;;22.63;18.40;;;22.20;99.90;;;;;;4989862;28;25133;-74
2021/09/18 11:13:12;;;;;;;25.98;21.60;;;22.30;99.90;;;;;;5024629;28;25081;-76
2021/09/18 11:15:59;;;;;;;31.70;24.23;;;22.40;99.90;;;;;;4996253;28;25192;-75
2021/09/18 11:18:38;;;;;;;27.33;20.52;;;22.20;99.90;;;;;;5000392;28;25082;-74
2021/09/18 11:21:10;;;;;;;21.33;16.20;;;21.90;99.90;;;;;;4993295;28;25117;-71
2021/09/18 11:23:46;;;;;;;26.50;18.05;;;21.90;99.90;;;;;;4999461;28;25063;-75
2021/09/18 11:26:35;;;;;;;19.05;16.60;;;21.90;99.90;;;;;;4999220;28;25084;-73
2021/09/18 11:29:20;;;;;;;20.25;15.93;;;22.00;99.90;;;;;;4989420;28;25072;-73
2021/09/18 11:32:01;;;;;;;22.98;18.02;;;22.60;99.90;;;;;;4993073;28;25073;-74
2021/09/18 11:34:31;;;;;;;21.00;14.88;;;22.80;99.90;;;;;;4994293;28;25110;-73
2021/09/18 11:36:59;;;;;;;17.27;14.43;;;22.70;99.90;;;;;;4983809;28;25105;-73
2021/09/18 11:39:43;;;;;;;14.00;10.90;;;23.00;99.90;;;;;;4983031;28;25082;-71
2021/09/18 11:42:31;;;;;;;15.93;11.27;;;23.40;99.90;;;;;;4988858;28;25092;-74
2021/09/18 11:45:13;;;;;;;15.38;11.02;;;24.00;99.90;;;;;;4990742;28;25069;-74
2021/09/18 11:47:47;;;;;;;13.60;10.70;;;24.50;99.90;;;;;;4991825;28;25058;-72
2021/09/18 11:50:18;;;;;;;11.52;8.63;;;25.10;99.90;;;;;;4988377;28;25074;-72
2021/09/18 11:52:44;;;;;;;12.87;8.17;;;25.30;99.90;;;;;;4998538;28;25065;-70
2021/09/18 11:55:42;;;;;;;10.27;7.57;;;25.20;99.90;;;;;;4999260;28;25081;-71
2021/09/18 11:58:25;;;;;;;8.13;7.10;;;24.60;99.90;;;;;;4984197;28;25097;-72
2021/09/18 12:01:07;;;;;;;8.90;5.72;;;24.30;99.90;;;;;;4988301;28;25090;-73
2021/09/18 12:03:35;;;;;;;8.55;6.07;;;24.70;99.90;;;;;;4988818;28;25071;-74
2021/09/18 12:06:03;;;;;;;10.30;6.93;;;25.00;99.90;;;;;;4989673;28;25145;-74
2021/09/18 12:08:31;;;;;;;13.27;9.13;;;25.00;99.90;;;;;;4989687;28;25075;-74
2021/09/18 12:11:17;;;;;;;9.95;8.50;;;24.80;99.90;;;;;;4990836;28;25075;-73
2021/09/18 12:13:48;;;;;;;9.55;6.88;;;24.30;99.90;;;;;;4992850;28;25126;-72
2021/09/18 12:16:17;;;;;;;7.25;6.55;;;24.80;99.90;;;;;;4984825;28;25137;-71
2021/09/18 12:18:47;;;;;;;10.48;8.13;;;25.10;99.90;;;;;;5002597;28;25081;-71
2021/09/18 12:21:16;;;;;;;11.88;9.30;;;25.20;99.90;;;;;;5002591;28;25093;-72
2021/09/18 12:23:47;;;;;;;9.20;7.65;;;25.00;99.90;;;;;;5031944;28;25051;-72
2021/09/18 12:26:13;;;;;;;10.93;6.97;;;25.20;99.90;;;;;;5015459;28;25068;-72
2021/09/18 12:28:39;;;;;;;12.18;7.40;;;25.50;99.90;;;;;;5004902;28;25085;-72
2021/09/18 12:31:20;;;;;;;10.20;6.40;;;25.80;99.60;;;;;;4991673;28;25079;-72
2021/09/18 12:33:48;;;;;;;8.45;6.57;;;25.90;99.10;;;;;;4989571;28;25069;-72
2021/09/18 12:36:24;;;;;;;8.77;6.38;;;26.00;99.20;;;;;;4986960;28;25117;-70